Terminal Aerodrome Forecast
Issued by NWS

Home | Current Version | Previous Version | Text Only | Print | Product List | Glossary On
Versions: 1 2 3 4 5 6 7 8 9 10 11 12
000
FTUS42 KMLB 031122
TAFLEE
TAF
KLEE 031122Z 0312/0412 04003KT P6SM SKC
     FM031500 09008KT P6SM FEW040
     FM032000 09011G17KT P6SM SCT060
     FM040100 09010KT P6SM FEW050=

USA.gov is the U.S. government's official web portal to all federal, state and local government web resources and services.